Time;durP1;ratioP1;P1;durP2;ratioP2;P2;SDS_P1;SDS_P2;PMS_P1;PMS_P2;Temp;Humidity;BMP_temperature;BMP_pressure;BME280_temperature;BME280_humidity;BME280_pressure;Samples;Min_cycle;Max_cycle;Signal;HPM_P1;HPM_P2
2022/11/17 00:01:58;;;;;;;11.83;7.63;;;;;;;9.16;100.00;98717.63;5046308;28;20177;-87
2022/11/17 00:04:25;;;;;;;14.90;8.27;;;;;;;9.13;100.00;98689.25;5027501;28;20059;-90
2022/11/17 00:06:51;;;;;;;11.57;7.00;;;;;;;9.18;100.00;98692.00;5047568;28;20111;-90
2022/11/17 00:09:16;;;;;;;13.17;8.30;;;;;;;9.14;100.00;98685.47;5028533;28;20101;-90
2022/11/17 00:14:38;;;;;;;12.77;7.33;;;;;;;9.17;100.00;98684.97;5048088;28;20207;-87
2022/11/17 00:17:10;;;;;;;12.17;7.20;;;;;;;9.19;100.00;98676.59;5045654;28;20071;-90
2022/11/17 00:22:24;;;;;;;9.17;7.03;;;;;;;9.18;100.00;98647.94;5031604;28;20044;-90
2022/11/17 00:24:50;;;;;;;13.53;7.43;;;;;;;9.16;100.00;98625.78;5047124;28;20041;-91
2022/11/17 00:27:15;;;;;;;10.40;6.93;;;;;;;9.16;100.00;98628.47;5046988;28;20040;-90
2022/11/17 00:29:41;;;;;;;12.37;6.70;;;;;;;9.20;100.00;98629.59;5046933;28;20029;-88
2022/11/17 00:35:02;;;;;;;11.18;6.05;;;;;;;9.23;100.00;98605.59;5048431;28;20048;-89
2022/11/17 00:37:34;;;;;;;8.50;5.83;;;;;;;9.18;100.00;98602.84;5050247;28;20041;-91
2022/11/17 00:40:00;;;;;;;10.60;6.23;;;;;;;9.23;100.00;98592.09;5050707;28;20025;-89
2022/11/17 00:42:25;;;;;;;11.57;6.90;;;;;;;9.13;100.00;98578.47;5048504;28;21587;-89
2022/11/17 00:44:51;;;;;;;10.90;6.10;;;;;;;9.16;100.00;98579.84;5051442;28;20036;-89
2022/11/17 00:47:16;;;;;;;9.70;6.20;;;;;;;9.22;100.00;98585.03;5050856;28;20045;-91
2022/11/17 00:49:41;;;;;;;9.93;5.80;;;;;;;9.22;100.00;98590.44;5031903;28;20047;-91
2022/11/17 00:52:08;;;;;;;11.37;6.13;;;;;;;9.25;100.00;98578.31;5049609;28;20047;-88
2022/11/17 00:54:34;;;;;;;9.67;6.10;;;;;;;9.25;100.00;98568.31;5050773;28;20810;-90
2022/11/17 00:56:59;;;;;;;10.97;5.97;;;;;;;9.21;100.00;98567.19;5050705;28;20033;-88
2022/11/17 00:59:25;;;;;;;11.90;6.00;;;;;;;9.24;100.00;98549.66;5050792;28;20377;-90
2022/11/17 01:01:50;;;;;;;12.60;6.20;;;;;;;9.20;100.00;98562.06;5050773;28;20032;-89
2022/11/17 01:04:16;;;;;;;11.77;6.00;;;;;;;9.21;100.00;98555.59;5032225;28;20055;-88
2022/11/17 01:06:44;;;;;;;10.07;6.37;;;;;;;9.20;100.00;98546.63;5048503;28;20033;-92
2022/11/17 01:09:14;;;;;;;9.70;6.20;;;;;;;9.21;100.00;98558.28;5050873;28;20035;-91
2022/11/17 01:11:41;;;;;;;9.57;6.07;;;;;;;9.22;100.00;98541.81;5051744;28;20419;-91
2022/11/17 01:14:08;;;;;;;11.13;6.20;;;;;;;9.17;100.00;98555.28;5048508;28;20600;-87
2022/11/17 01:16:34;;;;;;;10.80;6.23;;;;;;;9.21;100.00;98545.56;5050505;28;20204;-88
2022/11/17 01:19:01;;;;;;;11.47;6.87;;;;;;;9.22;100.00;98557.19;5049791;28;20085;-89
2022/11/17 01:21:27;;;;;;;11.60;6.20;;;;;;;9.17;100.00;98555.28;5048672;28;20046;-93
2022/11/17 01:23:55;;;;;;;9.63;6.17;;;;;;;9.22;100.00;98549.91;5052126;28;20064;-90
2022/11/17 01:26:27;;;;;;;9.57;5.60;;;;;;;9.24;100.00;98530.72;5051152;28;20042;-92
2022/11/17 01:28:53;;;;;;;10.03;5.40;;;;;;;9.25;100.00;98525.06;5049990;28;20037;-92
2022/11/17 01:31:24;;;;;;;8.37;5.23;;;;;;;9.31;100.00;98538.63;5051163;28;20145;-92
2022/11/17 01:33:50;;;;;;;10.10;5.40;;;;;;;9.29;100.00;98509.16;5049506;28;20032;-88
2022/11/17 01:36:19;;;;;;;7.00;4.57;;;;;;;9.36;100.00;98522.44;5048323;28;20103;-88
2022/11/17 01:38:44;;;;;;;8.87;4.80;;;;;;;9.36;100.00;98514.34;5050220;28;20037;-90
2022/11/17 01:41:16;;;;;;;7.53;4.10;;;;;;;9.39;100.00;98511.09;5050594;28;20037;-92
2022/11/17 01:43:44;;;;;;;4.80;3.70;;;;;;;9.44;100.00;98514.66;5046923;28;20044;-88
2022/11/17 01:46:25;;;;;;;7.77;3.50;;;;;;;9.46;100.00;98517.91;5052390;28;20454;-90
2022/11/17 01:48:55;;;;;;;5.30;3.20;;;;;;;9.52;100.00;98509.81;5050216;28;20040;-88
2022/11/17 01:51:21;;;;;;;4.87;2.97;;;;;;;9.57;100.00;98510.69;5050269;28;20404;-92
2022/11/17 01:53:49;;;;;;;5.40;3.00;;;;;;;9.59;100.00;98507.72;5048542;28;20049;-89
2022/11/17 01:56:19;;;;;;;4.57;3.17;;;;;;;9.55;100.00;98499.28;5050656;28;20118;-88
2022/11/17 01:58:51;;;;;;;4.17;2.90;;;;;;;9.55;100.00;98504.69;5049899;28;20048;-89
2022/11/17 02:01:16;;;;;;;6.27;3.20;;;;;;;9.57;100.00;98489.06;5050018;28;20044;-89
2022/11/17 02:03:46;;;;;;;6.93;3.00;;;;;;;9.56;100.00;98497.41;5038435;28;20053;-89
2022/11/17 02:06:17;;;;;;;5.77;3.43;;;;;;;9.54;100.00;98480.63;5029343;28;20037;-89
2022/11/17 02:08:45;;;;;;;4.43;2.80;;;;;;;9.58;100.00;98490.66;5030169;28;20044;-92
2022/11/17 02:11:15;;;;;;;5.70;2.63;;;;;;;9.67;100.00;98473.91;5010448;28;20095;-89
2022/11/17 02:13:40;;;;;;;3.97;2.53;;;;;;;9.56;100.00;98454.13;5028034;28;20029;-86
2022/11/17 02:16:13;;;;;;;3.50;2.77;;;;;;;9.70;100.00;98479.63;5030271;28;20127;-86
2022/11/17 02:18:40;;;;;;;2.30;2.10;;;;;;;9.71;100.00;98461.50;5028578;28;20505;-86
2022/11/17 02:21:09;;;;;;;4.03;2.10;;;;;;;9.76;100.00;98480.47;5029371;28;20048;-87
2022/11/17 02:23:50;;;;;;;4.47;2.30;;;;;;;9.77;100.00;98468.56;5029361;28;20029;-86
2022/11/17 02:26:40;;;;;;;2.67;2.27;;;;;;;9.75;100.00;98462.59;5011006;28;20749;-88
2022/11/17 02:29:18;;;;;;;4.27;2.33;;;;;;;9.82;100.00;98467.75;5029047;28;20071;-88
2022/11/17 02:32:03;;;;;;;3.60;2.10;;;;;;;9.80;100.00;98462.63;5026012;28;20048;-88
2022/11/17 02:34:32;;;;;;;3.10;2.40;;;;;;;9.77;100.00;98461.25;5029016;28;20033;-87
2022/11/17 02:37:16;;;;;;;4.97;2.43;;;;;;;9.75;100.00;98440.97;5029073;28;20097;-88
2022/11/17 02:40:00;;;;;;;3.53;2.23;;;;;;;9.83;100.00;98453.16;5028619;28;21430;-89
2022/11/17 02:45:38;;;;;;;3.43;2.13;;;;;;;9.80;100.00;98435.56;5029020;28;20098;-87
2022/11/17 02:48:10;;;;;;;3.43;2.17;;;;;;;9.68;100.00;98433.09;5020247;28;20079;-87
2022/11/17 02:50:37;;;;;;;2.73;2.30;;;;;;;9.84;100.00;98450.19;5011460;28;20036;-86
2022/11/17 02:53:03;;;;;;;2.17;1.97;;;;;;;9.84;100.00;98443.97;5028674;28;20037;-86
2022/11/17 02:55:32;;;;;;;2.50;2.20;;;;;;;9.83;100.00;98436.94;5028284;28;20044;-84
2022/11/17 02:57:57;;;;;;;3.10;2.00;;;;;;;9.80;100.00;98424.75;5011974;28;20577;-86
2022/11/17 03:00:23;;;;;;;4.30;2.10;;;;;;;9.81;100.00;98420.97;5027535;28;20087;-87
2022/11/17 03:03:15;;;;;;;3.73;2.30;;;;;;;9.90;100.00;98422.09;5028263;28;20355;-88
2022/11/17 03:05:49;;;;;;;2.63;2.40;;;;;;;9.91;100.00;98404.78;5029001;28;20068;-88
2022/11/17 03:08:18;;;;;;;2.58;2.38;;;;;;;9.93;100.00;98393.72;5028046;28;20039;-88
2022/11/17 03:10:50;;;;;;;3.83;2.30;;;;;;;9.91;100.00;98379.63;5029008;28;20132;-88
2022/11/17 03:13:40;;;;;;;2.73;1.93;;;;;;;9.86;100.00;98385.84;5028576;28;20107;-87
2022/11/17 03:16:16;;;;;;;2.20;1.80;;;;;;;9.87;100.00;98383.94;5027931;28;20497;-88
2022/11/17 03:18:59;;;;;;;2.90;1.90;;;;;;;9.85;100.00;98375.31;5028198;28;20038;-88
2022/11/17 03:21:42;;;;;;;2.77;1.60;;;;;;;9.80;100.00;98376.91;5028427;28;20044;-85
2022/11/17 03:24:28;;;;;;;3.20;1.53;;;;;;;9.83;100.00;98355.81;5028717;28;20134;-86
2022/11/17 03:27:02;;;;;;;2.03;1.47;;;;;;;9.81;100.00;98358.78;5028642;28;20393;-88
2022/11/17 03:29:31;;;;;;;2.47;1.30;;;;;;;9.76;100.00;98354.19;5027626;28;20039;-88
2022/11/17 03:32:00;;;;;;;1.87;1.40;;;;;;;9.78;100.00;98370.16;5013586;28;20385;-87
2022/11/17 03:34:30;;;;;;;1.67;1.30;;;;;;;9.78;100.00;98352.00;5028073;28;20033;-86
2022/11/17 03:37:00;;;;;;;1.53;1.43;;;;;;;9.79;100.00;98358.22;5009033;28;20041;-90
2022/11/17 03:39:31;;;;;;;2.13;1.30;;;;;;;9.81;100.00;98361.50;5009607;28;20055;-87
2022/11/17 03:42:01;;;;;;;3.47;1.40;;;;;;;9.80;100.00;98352.56;5028364;28;20033;-87
2022/11/17 03:44:30;;;;;;;2.10;1.27;;;;;;;9.75;100.00;98338.22;5026981;28;20482;-90
2022/11/17 03:47:01;;;;;;;1.50;1.17;;;;;;;9.85;100.00;98343.66;5028032;28;20076;-89
2022/11/17 03:49:43;;;;;;;2.37;1.30;;;;;;;9.82;100.00;98344.19;5028168;28;21862;-89
2022/11/17 03:52:09;;;;;;;2.50;1.30;;;;;;;9.83;100.00;98337.69;5027151;28;20116;-89
2022/11/17 03:54:35;;;;;;;4.90;1.50;;;;;;;9.82;100.00;98344.19;5028103;28;20041;-88
2022/11/17 03:57:12;;;;;;;1.10;1.00;;;;;;;9.75;100.00;98327.41;5027863;28;20051;-87
2022/11/17 04:00:12;;;;;;;2.63;1.30;;;;;;;9.78;100.00;98338.50;5027548;28;20483;-87
2022/11/17 04:02:53;;;;;;;1.20;1.10;;;;;;;9.79;100.00;98334.72;5026637;28;21339;-88
2022/11/17 04:05:18;;;;;;;3.63;1.30;;;;;;;9.80;100.00;98327.41;5010171;28;20084;-87
2022/11/17 04:07:46;;;;;;;1.87;1.30;;;;;;;9.80;100.00;98325.53;5027467;28;20568;-86
2022/11/17 04:10:13;;;;;;;1.50;1.40;;;;;;;9.75;100.00;98320.13;5027590;28;20025;-85
2022/11/17 04:18:07;;;;;;;1.90;1.80;;;;;;;9.91;100.00;98312.84;5028262;28;20058;-87
2022/11/17 04:20:35;;;;;;;2.20;1.90;;;;;;;9.84;100.00;98306.84;5026979;28;20045;-87
2022/11/17 04:23:13;;;;;;;2.47;1.80;;;;;;;9.92;100.00;98319.84;5028110;28;20083;-85
2022/11/17 04:28:37;;;;;;;2.97;1.40;;;;;;;9.94;100.00;98309.56;5026937;28;20899;-84
2022/11/17 04:31:31;;;;;;;2.07;1.63;;;;;;;9.95;100.00;98324.75;5027329;28;20083;-87
2022/11/17 04:33:59;;;;;;;2.13;0.93;;;;;;;9.95;100.00;98316.63;5004192;28;20456;-87
2022/11/17 04:36:39;;;;;;;2.53;1.20;;;;;;;9.95;100.00;98313.91;5027473;28;20048;-86
2022/11/17 04:39:05;;;;;;;1.20;1.10;;;;;;;9.91;100.00;98320.94;5027822;28;20862;-85
2022/11/17 04:44:18;;;;;;;1.57;1.30;;;;;;;9.83;100.00;98318.75;5027273;28;20575;-86
2022/11/17 04:46:47;;;;;;;3.87;1.60;;;;;;;9.71;100.00;98308.22;5027062;28;20396;-89
2022/11/17 04:49:14;;;;;;;1.40;1.30;;;;;;;9.72;100.00;98307.09;5012403;28;20048;-89
2022/11/17 04:51:40;;;;;;;3.13;1.40;;;;;;;9.74;100.00;98287.94;5027822;28;20108;-89
2022/11/17 04:54:07;;;;;;;3.33;1.47;;;;;;;9.73;100.00;98267.38;5009627;28;20487;-90
2022/11/17 04:56:33;;;;;;;2.43;1.47;;;;;;;9.78;100.00;98284.41;5027059;28;20405;-89
2022/11/17 04:58:58;;;;;;;3.00;1.50;;;;;;;9.73;100.00;98275.50;5027065;28;20052;-88
2022/11/17 05:01:26;;;;;;;4.70;1.83;;;;;;;9.65;100.00;98276.03;5027244;28;20045;-88
2022/11/17 05:03:56;;;;;;;3.03;1.47;;;;;;;9.57;100.00;98263.84;5026953;28;20057;-91
2022/11/17 05:06:24;;;;;;;4.50;1.97;;;;;;;9.65;100.00;98278.72;5008730;28;20124;-91
2022/11/17 05:08:54;;;;;;;5.23;1.70;;;;;;;9.67;100.00;98276.56;5009439;28;20269;-89
2022/11/17 05:14:06;;;;;;;4.90;1.80;;;;;;;9.61;100.00;98270.34;5028033;28;20056;-91
2022/11/17 05:19:20;;;;;;;3.67;1.88;;;;;;;9.54;100.00;98257.06;5026748;28;20133;-88
2022/11/17 05:21:46;;;;;;;3.30;2.00;;;;;;;9.49;100.00;98258.97;5027004;28;20064;-90
2022/11/17 05:24:13;;;;;;;2.87;2.10;;;;;;;9.53;100.00;98271.66;5027759;28;20025;-86
2022/11/17 05:26:40;;;;;;;4.23;2.10;;;;;;;9.41;100.00;98252.19;5021597;28;20037;-89
2022/11/17 05:29:06;;;;;;;4.37;2.00;;;;;;;9.50;100.00;98269.50;5031001;28;20092;-87
2022/11/17 05:31:32;;;;;;;4.37;2.20;;;;;;;9.52;100.00;98272.75;5029899;28;20046;-90
2022/11/17 05:33:58;;;;;;;4.43;1.87;;;;;;;9.53;100.00;98290.59;5012529;28;20147;-86
2022/11/17 05:36:25;;;;;;;3.57;1.90;;;;;;;9.55;100.00;98279.53;5022164;28;20060;-90
2022/11/17 05:38:51;;;;;;;4.90;2.13;;;;;;;9.60;100.00;98293.03;5011721;28;20045;-90
2022/11/17 05:41:18;;;;;;;6.63;2.57;;;;;;;9.69;100.00;98301.44;5000353;28;20037;-89
2022/11/17 05:43:44;;;;;;;4.90;2.03;;;;;;;9.76;100.00;98301.97;5021329;28;20067;-88
2022/11/17 05:46:10;;;;;;;8.87;2.60;;;;;;;9.83;100.00;98307.94;5029899;28;20049;-87
2022/11/17 05:48:35;;;;;;;7.83;2.37;;;;;;;9.84;100.00;98303.34;5029347;28;20462;-89
2022/11/17 05:51:04;;;;;;;8.37;2.50;;;;;;;9.83;100.00;98305.22;5030562;28;20044;-87
2022/11/17 05:53:30;;;;;;;8.10;2.57;;;;;;;9.79;100.00;98299.56;5028865;28;20431;-88
2022/11/17 05:56:15;;;;;;;6.93;2.30;;;;;;;9.82;100.00;98311.75;5015757;28;20035;-88
2022/11/17 05:58:43;;;;;;;;;;;;;;;9.82;100.00;98309.03;5030667;28;20646;-89
2022/11/17 06:01:12;;;;;;;6.93;2.40;;;;;;;9.77;100.00;98314.44;5029509;28;19952;-87
2022/11/17 06:03:42;;;;;;;4.17;2.10;;;;;;;9.75;100.00;98317.41;5029990;28;20048;-87
2022/11/17 06:06:08;;;;;;;9.67;2.53;;;;;;;9.73;100.00;98311.44;5049909;28;20038;-87
2022/11/17 06:08:35;;;;;;;9.97;2.40;;;;;;;9.76;100.00;98312.81;5051532;28;20056;-87
2022/11/17 06:11:00;;;;;;;7.90;2.30;;;;;;;9.76;100.00;98315.50;5049766;28;20032;-89
2022/11/17 06:13:27;;;;;;;8.80;2.20;;;;;;;9.68;100.00;98302.50;5049223;28;20048;-89
2022/11/17 06:15:55;;;;;;;7.67;2.03;;;;;;;9.78;100.00;98316.88;5049322;28;20024;-88
2022/11/17 06:18:28;;;;;;;7.23;2.50;;;;;;;9.76;100.00;98313.63;5049424;28;20032;-89
2022/11/17 06:20:53;;;;;;;9.53;2.23;;;;;;;9.74;100.00;98315.78;5057212;28;20844;-87
2022/11/17 06:23:22;;;;;;;8.17;2.70;;;;;;;9.77;100.00;98322.53;5063042;28;20603;-88
2022/11/17 06:25:47;;;;;;;12.20;2.47;;;;;;;9.72;100.00;98320.63;5051445;28;20032;-88
2022/11/17 06:28:18;;;;;;;10.80;2.50;;;;;;;9.77;100.00;98339.56;5049852;28;20090;-87
2022/11/17 06:30:44;;;;;;;7.07;2.30;;;;;;;9.76;100.00;98326.31;5051082;28;20102;-89
2022/11/17 06:33:13;;;;;;;12.53;2.43;;;;;;;9.83;100.00;98343.09;5049151;28;21348;-88
2022/11/17 06:35:41;;;;;;;9.23;2.60;;;;;;;9.83;100.00;98331.47;5048847;28;20546;-88
2022/11/17 06:38:07;;;;;;;10.93;2.53;;;;;;;9.85;100.00;98342.84;5061693;28;21733;-89
2022/11/17 06:40:32;;;;;;;11.33;2.70;;;;;;;9.85;100.00;98340.13;5048883;28;20032;-88
2022/11/17 06:43:10;;;;;;;7.63;2.43;;;;;;;9.83;100.00;98334.97;5061794;28;20048;-90
2022/11/17 06:45:36;;;;;;;7.63;2.57;;;;;;;9.86;100.00;98350.69;5047628;28;20032;-86
2022/11/17 06:48:02;;;;;;;6.87;1.80;;;;;;;9.95;100.00;98342.84;5049600;28;20049;-91
2022/11/17 06:50:28;;;;;;;7.10;2.00;;;;;;;9.91;100.00;98357.97;5048315;28;20143;-90
2022/11/17 06:52:57;;;;;;;6.27;2.30;;;;;;;9.91;100.00;98345.28;5048950;28;20025;-90
2022/11/17 06:55:23;;;;;;;5.47;1.73;;;;;;;9.85;100.00;98354.47;5035269;28;20041;-88
2022/11/17 06:57:48;;;;;;;7.00;2.20;;;;;;;9.82;100.00;98354.19;5048341;28;20085;-89
2022/11/17 07:00:14;;;;;;;8.50;2.27;;;;;;;9.80;100.00;98368.81;5047085;28;20040;-87
2022/11/17 07:02:39;;;;;;;8.47;2.03;;;;;;;9.68;100.00;98353.88;5047452;28;20462;-88
2022/11/17 07:05:05;;;;;;;9.33;2.33;;;;;;;9.73;100.00;98367.41;5029706;28;20047;-89
2022/11/17 07:07:30;;;;;;;5.83;1.77;;;;;;;9.69;100.00;98371.75;5028443;28;20179;-91
2022/11/17 07:09:55;;;;;;;9.17;2.20;;;;;;;9.69;100.00;98372.53;5018856;28;20044;-88
2022/11/17 07:12:21;;;;;;;9.43;2.43;;;;;;;9.63;100.00;98360.91;5027668;28;20037;-89
2022/11/17 07:14:46;;;;;;;6.80;2.10;;;;;;;9.69;100.00;98366.34;4996020;28;21358;-90
2022/11/17 07:17:11;;;;;;;8.20;2.00;;;;;;;9.66;100.00;98378.50;5028484;28;20579;-87
2022/11/17 07:19:37;;;;;;;6.70;2.47;;;;;;;9.61;100.00;98382.00;5010316;28;20037;-88
2022/11/17 07:22:03;;;;;;;4.97;2.00;;;;;;;9.55;100.00;98377.66;5028566;28;20040;-88
2022/11/17 07:24:28;;;;;;;6.83;2.10;;;;;;;9.52;100.00;98378.19;5019677;28;20040;-88
2022/11/17 07:26:53;;;;;;;6.87;1.90;;;;;;;9.48;100.00;98377.09;5028061;28;20098;-91
2022/11/17 07:29:19;;;;;;;6.83;1.87;;;;;;;9.54;100.00;98394.94;5028296;28;20134;-88
2022/11/17 07:31:44;;;;;;;7.23;2.10;;;;;;;9.49;100.00;98383.31;5028448;28;20049;-89
2022/11/17 07:34:09;;;;;;;7.20;2.20;;;;;;;9.49;100.00;98391.41;5026942;28;20033;-90
2022/11/17 07:36:35;;;;;;;9.70;1.80;;;;;;;9.45;100.00;98393.81;5027869;28;20040;-89
2022/11/17 07:39:00;;;;;;;8.03;1.93;;;;;;;9.44;100.00;98400.31;5027953;28;20071;-88
2022/11/17 07:41:26;;;;;;;5.60;1.67;;;;;;;9.46;100.00;98401.69;5027402;28;20041;-90
2022/11/17 07:43:51;;;;;;;6.63;1.80;;;;;;;9.45;100.00;98401.94;5027786;28;20043;-90
2022/11/17 07:46:17;;;;;;;5.77;1.80;;;;;;;9.41;100.00;98408.94;5027021;28;20089;-92
2022/11/17 07:48:42;;;;;;;7.07;2.00;;;;;;;9.32;100.00;98411.34;5028351;28;20032;-88
2022/11/17 07:51:08;;;;;;;7.97;2.10;;;;;;;9.31;100.00;98417.00;5027244;28;20040;-88
2022/11/17 07:53:34;;;;;;;5.23;1.90;;;;;;;9.36;100.00;98423.25;5028606;28;20033;-88
2022/11/17 07:56:08;;;;;;;7.23;1.80;;;;;;;9.27;100.00;98416.72;5018550;28;20047;-89
2022/11/17 07:58:35;;;;;;;4.38;1.80;;;;;;;9.24;100.00;98409.16;5009739;28;20052;-91
2022/11/17 08:01:08;;;;;;;5.43;1.67;;;;;;;9.22;100.00;98419.38;5002723;28;20048;-89
2022/11/17 08:03:34;;;;;;;5.30;1.97;;;;;;;9.21;100.00;98426.69;5030966;28;20722;-87
2022/11/17 08:06:04;;;;;;;5.67;1.90;;;;;;;9.25;100.00;98427.00;5047795;28;20033;-88
2022/11/17 08:08:29;;;;;;;6.37;1.90;;;;;;;9.20;100.00;98427.75;5047806;28;20037;-90
2022/11/17 08:10:55;;;;;;;3.63;1.70;;;;;;;9.19;100.00;98433.44;5047273;28;20363;-89
2022/11/17 08:13:20;;;;;;;5.63;1.67;;;;;;;9.28;100.00;98442.66;5047724;28;20567;-89
2022/11/17 08:15:45;;;;;;;4.87;1.50;;;;;;;9.27;100.00;98438.34;5047637;28;20472;-91
2022/11/17 08:18:11;;;;;;;6.83;1.77;;;;;;;9.31;100.00;98447.53;5050150;28;20064;-89
2022/11/17 08:20:36;;;;;;;4.53;1.70;;;;;;;9.27;100.00;98441.88;5047000;28;20036;-90
2022/11/17 08:23:02;;;;;;;5.90;1.70;;;;;;;9.32;100.00;98448.38;5047598;28;20372;-91
2022/11/17 08:25:27;;;;;;;4.30;1.67;;;;;;;9.13;100.00;98430.69;5048773;28;20511;-87
2022/11/17 08:27:54;;;;;;;3.83;1.53;;;;;;;9.17;100.00;98449.91;5051113;28;20037;-92
2022/11/17 08:30:20;;;;;;;4.67;1.60;;;;;;;9.25;100.00;98462.13;5046795;28;20037;-90
2022/11/17 08:32:51;;;;;;;6.60;1.90;;;;;;;9.25;100.00;98473.72;5061596;28;20032;-87
2022/11/17 08:35:18;;;;;;;7.00;1.60;;;;;;;9.28;100.00;98473.19;5055009;28;20464;-90
2022/11/17 08:37:44;;;;;;;3.77;1.40;;;;;;;9.20;100.00;98467.50;5052486;28;20508;-87
2022/11/17 08:40:10;;;;;;;4.93;1.37;;;;;;;9.23;100.00;98469.66;5054294;28;20093;-91
2022/11/17 08:42:36;;;;;;;4.30;1.27;;;;;;;9.23;100.00;98462.38;5051128;28;20041;-92
2022/11/17 08:45:01;;;;;;;7.13;1.57;;;;;;;9.18;100.00;98470.44;5063249;28;20371;-90
2022/11/17 08:47:27;;;;;;;4.17;1.40;;;;;;;9.17;100.00;98474.22;5062854;28;20044;-89
2022/11/17 08:49:52;;;;;;;5.13;1.57;;;;;;;9.13;100.00;98471.22;5063123;28;20021;-87
2022/11/17 08:52:18;;;;;;;2.57;1.50;;;;;;;9.11;100.00;98462.56;5060958;28;20056;-90
2022/11/17 08:54:44;;;;;;;6.37;1.87;;;;;;;9.11;100.00;98472.53;5067520;28;20035;-90
2022/11/17 08:57:09;;;;;;;3.80;1.70;;;;;;;9.08;100.00;98483.88;5061122;28;20023;-86
2022/11/17 08:59:35;;;;;;;10.00;2.40;;;;;;;9.02;100.00;98469.53;5054309;28;20090;-90
2022/11/17 09:02:00;;;;;;;4.67;1.43;;;;;;;8.99;100.00;98471.94;5058157;28;20039;-88
2022/11/17 09:04:25;;;;;;;5.87;1.53;;;;;;;8.98;100.00;98475.72;5058836;28;20111;-89
2022/11/17 09:06:51;;;;;;;6.47;1.67;;;;;;;9.00;100.00;98487.06;5068735;28;20134;-90
2022/11/17 09:09:17;;;;;;;6.17;1.60;;;;;;;9.00;100.00;98487.88;5048278;28;20049;-87
2022/11/17 09:11:42;;;;;;;7.40;1.70;;;;;;;8.94;100.00;98487.03;5050750;28;20037;-90
2022/11/17 09:14:08;;;;;;;4.27;1.60;;;;;;;8.93;100.00;98485.41;5051298;28;20087;-90
2022/11/17 09:16:34;;;;;;;6.53;1.60;;;;;;;9.00;100.00;98501.38;5049739;28;20075;-88
2022/11/17 09:19:01;;;;;;;5.33;1.40;;;;;;;9.00;100.00;98495.16;5048913;28;20044;-89
2022/11/17 09:21:27;;;;;;;2.73;1.30;;;;;;;9.00;100.00;98489.78;5047898;28;20047;-88
2022/11/17 09:23:53;;;;;;;6.60;1.50;;;;;;;9.12;100.00;98503.91;5053285;28;20057;-89
2022/11/17 09:26:19;;;;;;;4.63;1.77;;;;;;;9.11;100.00;98499.56;5047964;28;20608;-89
2022/11/17 09:28:44;;;;;;;4.07;1.50;;;;;;;9.17;100.00;98512.03;5049711;28;20612;-88
2022/11/17 09:31:13;;;;;;;4.07;1.30;;;;;;;9.16;100.00;98523.13;5048373;28;20475;-88
2022/11/17 09:33:40;;;;;;;6.73;1.67;;;;;;;9.16;100.00;98526.63;5047304;28;20702;-89
2022/11/17 09:36:08;;;;;;;3.53;1.60;;;;;;;9.20;100.00;98530.44;5049935;28;20033;-89
2022/11/17 09:38:35;;;;;;;6.23;1.97;;;;;;;9.09;100.00;98509.81;5050475;28;20642;-89
2022/11/17 09:41:11;;;;;;;2.87;1.47;;;;;;;9.21;100.00;98523.16;5036853;28;20043;-89
2022/11/17 09:43:38;;;;;;;3.23;1.27;;;;;;;9.22;100.00;98539.09;5049491;28;20055;-88
2022/11/17 09:46:18;;;;;;;4.03;1.53;;;;;;;9.17;100.00;98522.06;5048539;28;20039;-90
2022/11/17 09:49:11;;;;;;;4.00;1.73;;;;;;;9.23;100.00;98538.03;5049259;28;20040;-89
2022/11/17 09:51:40;;;;;;;4.70;1.70;;;;;;;9.34;100.00;98548.91;5045305;28;20044;-89
2022/11/17 09:54:17;;;;;;;4.50;1.83;;;;;;;9.34;100.00;98547.00;5050023;28;20095;-89
2022/11/17 09:56:44;;;;;;;3.80;1.60;;;;;;;9.39;100.00;98551.66;5044840;28;20377;-89
2022/11/17 09:59:14;;;;;;;5.07;2.10;;;;;;;9.40;100.00;98548.69;5046302;28;20044;-89
2022/11/17 10:01:39;;;;;;;4.83;1.73;;;;;;;9.45;100.00;98532.50;5046212;28;20644;-89
2022/11/17 10:04:10;;;;;;;5.47;1.80;;;;;;;9.56;100.00;98552.28;5062425;28;20069;-87
2022/11/17 10:06:36;;;;;;;6.50;2.20;;;;;;;9.57;100.00;98553.94;5045298;28;20552;-90
2022/11/17 10:09:10;;;;;;;3.67;1.57;;;;;;;9.59;100.00;98543.66;5047082;28;20040;-89
2022/11/17 10:11:40;;;;;;;4.22;1.63;;;;;;;9.65;100.00;98530.97;5046256;28;20028;-91
2022/11/17 10:14:17;;;;;;;4.40;1.50;;;;;;;9.74;100.00;98559.16;5046742;28;20036;-90
2022/11/17 10:16:49;;;;;;;6.37;1.60;;;;;;;9.76;100.00;98570.53;5057476;28;20075;-91
2022/11/17 10:19:27;;;;;;;4.80;1.50;;;;;;;9.82;100.00;98563.25;5052099;28;20059;-92
2022/11/17 10:22:02;;;;;;;4.80;1.87;;;;;;;9.79;100.00;98561.88;5050497;28;20037;-93
2022/11/17 10:24:36;;;;;;;5.67;2.00;;;;;;;9.97;100.00;98590.38;5052742;28;20043;-90
2022/11/17 10:27:05;;;;;;;4.57;1.65;;;;;;;10.01;100.00;98570.91;5050581;28;20039;-90
2022/11/17 10:29:30;;;;;;;6.67;1.90;;;;;;;10.07;100.00;98577.97;5051751;28;20032;-93
2022/11/17 10:31:56;;;;;;;5.90;1.60;;;;;;;10.09;100.00;98571.22;5067422;28;20040;-91
2022/11/17 10:34:48;;;;;;;4.40;1.60;;;;;;;10.28;100.00;98579.69;5051692;28;20131;-91
2022/11/17 10:37:16;;;;;;;7.13;2.40;;;;;;;10.25;100.00;98584.78;5052647;28;20055;-93
2022/11/17 10:39:42;;;;;;;5.33;1.93;;;;;;;10.24;100.00;98589.41;5050791;28;20051;-91
2022/11/17 10:42:23;;;;;;;4.20;1.87;;;;;;;10.33;100.00;98587.00;5048785;28;20036;-89
2022/11/17 10:44:52;;;;;;;5.90;1.90;;;;;;;10.46;99.85;98610.09;5052201;28;20029;-93
2022/11/17 10:47:32;;;;;;;4.77;1.60;;;;;;;10.45;100.00;98603.84;5051062;28;20029;-94
2022/11/17 10:50:26;;;;;;;3.50;1.23;;;;;;;10.55;100.00;98603.06;5050749;28;20123;-90
2022/11/17 10:52:53;;;;;;;4.83;1.60;;;;;;;10.50;98.05;98583.28;5052430;28;20463;-89
2022/11/17 10:55:30;;;;;;;7.67;2.90;;;;;;;10.58;97.65;98597.13;5050185;28;20215;-88
2022/11/17 10:58:00;;;;;;;4.33;1.90;;;;;;;10.55;99.05;98589.53;5052072;28;20060;-93
2022/11/17 11:00:32;;;;;;;4.97;2.30;;;;;;;10.61;98.19;98614.72;5050455;28;20746;-92
2022/11/17 11:03:14;;;;;;;5.63;1.90;;;;;;;10.50;99.19;98592.22;5051036;28;20168;-89
2022/11/17 11:06:00;;;;;;;8.30;3.50;;;;;;;10.54;100.00;98608.72;5050703;28;20668;-88
2022/11/17 11:08:49;;;;;;;5.10;2.30;;;;;;;10.55;99.07;98615.78;5051128;28;20721;-90
2022/11/17 11:11:20;;;;;;;5.97;2.40;;;;;;;10.45;98.78;98613.88;5051611;28;20040;-90
2022/11/17 11:13:54;;;;;;;5.70;2.77;;;;;;;10.39;98.53;98618.44;5051692;28;20520;-89
2022/11/17 11:16:20;;;;;;;5.47;1.92;;;;;;;10.41;98.65;98615.47;5051654;28;20040;-90
2022/11/17 11:18:47;;;;;;;4.33;1.37;;;;;;;10.37;98.77;98619.78;5056275;28;20040;-90
2022/11/17 11:21:46;;;;;;;4.40;1.67;;;;;;;10.50;99.72;98634.72;5050581;28;20044;-89
2022/11/17 11:24:29;;;;;;;7.43;2.00;;;;;;;10.40;99.35;98635.50;5051687;28;20032;-91
2022/11/17 11:27:26;;;;;;;5.10;1.90;;;;;;;10.28;99.83;98625.69;5051279;28;20490;-92
2022/11/17 11:30:09;;;;;;;4.60;1.73;;;;;;;10.28;100.00;98633.81;5051379;28;20033;-92
2022/11/17 11:32:52;;;;;;;5.53;1.50;;;;;;;10.23;100.00;98632.97;5048779;28;20070;-89
2022/11/17 11:35:37;;;;;;;4.43;1.90;;;;;;;10.26;100.00;98618.91;5051169;28;20390;-89
2022/11/17 11:38:03;;;;;;;4.33;1.63;;;;;;;10.26;100.00;98635.16;5050898;28;20791;-93
2022/11/17 11:40:33;;;;;;;4.07;1.30;;;;;;;10.19;100.00;98635.38;5051087;28;20033;-92
2022/11/17 11:43:10;;;;;;;3.73;1.67;;;;;;;10.25;100.00;98642.47;5051307;28;20043;-92
2022/11/17 11:45:51;;;;;;;2.87;1.30;;;;;;;10.32;100.00;98644.91;5050821;28;20037;-90
2022/11/17 11:48:25;;;;;;;4.93;1.53;;;;;;;10.30;100.00;98642.47;5051225;28;20388;-93
2022/11/17 11:51:13;;;;;;;3.97;1.67;;;;;;;10.43;99.39;98662.03;5052075;28;20039;-90
2022/11/17 11:53:55;;;;;;;6.77;1.90;;;;;;;10.46;98.14;98650.69;5051933;28;20075;-92
2022/11/17 11:56:26;;;;;;;4.27;1.57;;;;;;;10.43;98.58;98651.19;5050176;28;21402;-90
2022/11/17 11:59:05;;;;;;;6.70;1.37;;;;;;;10.45;98.35;98655.28;5049795;28;20376;-91
2022/11/17 12:01:43;;;;;;;8.20;2.20;;;;;;;10.46;98.06;98667.75;5050024;28;20025;-90
2022/11/17 12:04:11;;;;;;;5.50;1.90;;;;;;;10.38;98.60;98665.53;5053090;28;20048;-91
2022/11/17 12:07:22;;;;;;;5.27;1.63;;;;;;;10.37;98.90;98663.09;5050823;28;20431;-90
2022/11/17 12:10:02;;;;;;;4.70;2.00;;;;;;;10.44;97.90;98663.66;5052170;28;20061;-91
2022/11/17 12:12:35;;;;;;;9.30;3.23;;;;;;;10.39;99.90;98660.94;5050527;28;20278;-91
2022/11/17 12:15:19;;;;;;;7.93;2.70;;;;;;;10.44;99.69;98669.91;5052493;28;20133;-91